Home > Products > Valid Products > TAF

000
FTUS43 KDTX 241458 AAA
TAFDET
TAF AMD
KDET 241458Z 2415/2512 21020G30KT P6SM -SHRA SCT015 BKN045
      TEMPO 2415/2416 4SM -SHRA BR BKN015
     FM241800 23026G40KT P6SM BKN025 OVC035
     FM242300 23022G34KT P6SM OVC025
     FM250400 24016G23KT P6SM OVC035=



000
FTUS43 KDTX 241455 AAA
TAFDTW
TAF AMD
KDTW 241455Z 2415/2518 21020G30KT P6SM -SHRA SCT015 BKN045
      TEMPO 2415/2416 4SM -SHRA BR BKN015
     FM241800 23026G40KT P6SM BKN025 OVC035
     FM250000 23022G34KT P6SM OVC025
     FM250400 24016G23KT P6SM OVC035
     FM251600 24015G22KT P6SM BKN040=



000
FTUS43 KDTX 241417 AAA
TAFFNT
TAF AMD
KFNT 241417Z 2414/2512 21017G25KT P6SM BKN015
      TEMPO 2414/2416 3SM -SHRA BR
     FM241600 21020G28KT P6SM -SHRA BKN015
     FM242000 23024G38KT P6SM OVC025
     FM250000 23021G33KT P6SM OVC025
     FM250400 24016G23KT P6SM OVC025=



000
FTUS43 KDTX 241120
TAFFNT
TAF
KFNT 241120Z 2412/2512 21017G25KT P6SM BKN015
     FM241500 21020G28KT P6SM -SHRA BKN015
     FM242000 23024G38KT P6SM OVC025
     FM250000 23021G33KT P6SM OVC025
     FM250400 24016G23KT P6SM OVC025=



000
FTUS43 KDTX 241120
TAFDET
TAF
KDET 241120Z 2412/2512 21020G30KT P6SM -SHRA BKN015
     FM241900 23026G40KT P6SM BKN025 OVC035
     FM242300 23022G34KT P6SM OVC025
     FM250400 24016G23KT P6SM OVC035=



000
FTUS43 KDTX 241120
TAFDTW
TAF
KDTW 241120Z 2412/2518 21020G30KT P6SM -SHRA BKN015
     FM241900 23026G40KT P6SM BKN025 OVC035
     FM250000 23022G34KT P6SM OVC025
     FM250400 24016G23KT P6SM OVC035
     FM251600 24015G22KT P6SM BKN040=



000
FTUS43 KDTX 241120
TAFMBS
TAF
KMBS 241120Z 2412/2512 21017G25KT P6SM BKN015
     FM241600 21020G28KT P6SM -SHRA BKN015
     FM242100 23023G37KT P6SM OVC025
     FM250100 23020G30KT P6SM OVC025
     FM250500 24016G23KT P6SM OVC025=



000
FTUS43 KDTX 240908 AAA
TAFFNT
TAF AMD
KFNT 240908Z 2409/2506 19012KT 6SM -SHRA BKN012 OVC022
     FM241500 21020G30KT 6SM -SHRA OVC012
     FM241900 23030G40KT P6SM OVC025=



000
FTUS43 KDTX 240900 AAA
TAFDET
TAF AMD
KDET 240900Z 2409/2506 17020G27KT 6SM -SHRA BKN008 OVC015
     FM241300 21020G30KT 6SM -SHRA BKN012
     FM241900 23030G40KT P6SM OVC025
     FM242300 23025G35KT P6SM OVC030
     FM250500 24020G30KT P6SM OVC040=



000
FTUS43 KDTX 240859 AAA
TAFDTW
TAF AMD
KDTW 240859Z 2409/2512 17020G27KT 4SM -SHRA BKN008 OVC015
     FM241300 21020G30KT 6SM -SHRA BKN012
     FM241900 23030G40KT P6SM OVC025
     FM242300 23025G35KT P6SM OVC030
     FM250600 24020G30KT P6SM OVC040=



000
FTUS43 KDTX 240541
TAFDTW
TAF
KDTW 240541Z 2406/2512 16015KT 4SM -RA BR OVC008
      TEMPO 2406/2410 2SM RA BKN004
     FM241100 21015G25KT 4SM -SHRA OVC008
     FM241300 21020G30KT 6SM -SHRA SCT025 BKN040
     FM241900 23030G40KT P6SM OVC025
     FM250600 23020G30KT P6SM OVC040=



000
FTUS43 KDTX 240541
TAFDET
TAF
KDET 240541Z 2406/2506 16015KT 2SM RA BR OVC006
      TEMPO 2406/2410 2SM RA BKN004
     FM241100 21015G25KT 4SM -SHRA OVC008
     FM241300 21020G30KT 6SM -SHRA SCT025 BKN040
     FM241900 23030G40KT P6SM OVC025=



000
FTUS43 KDTX 240541
TAFFNT
TAF
KFNT 240541Z 2406/2506 16015KT 4SM RA BR OVC012
      TEMPO 2406/2410 2SM RA BKN008
     FM241200 21015G25KT 4SM -SHRA OVC008
     FM241500 21020G30KT 6SM -SHRA SCT025 BKN040
     FM241900 23030G40KT P6SM OVC025=



000
FTUS43 KDTX 240541
TAFMBS
TAF
KMBS 240541Z 2406/2506 16015KT 2SM RA BR OVC015
      TEMPO 2406/2410 2SM RA BKN008
     FM241300 21015G25KT 4SM -SHRA OVC008
     FM241900 23020G30KT P6SM OVC025=



000
FTUS43 KDTX 240404 AAA
TAFFNT
TAF AMD
KFNT 240404Z 2404/2424 13010G18KT 6SM -SHRA BR SCT008 OVC015
      TEMPO 2404/2406 4SM RA BR BKN008
     FM240600 16015KT 2SM RA BR OVC004
     FM241200 21015G25KT 4SM -SHRA OVC008
     FM241500 21020G30KT 6SM -SHRA SCT025 BKN040
     FM241900 23030G40KT P6SM OVC025=



000
FTUS43 KDTX 240404 AAA
TAFFNT
TAF AMD
KFNT 240404Z 2404/2424 13010G18KT 6SM -SHRA BR SCT008 OVC015
      TEMPO 2404/2406 4SM RA BR BKN008
     FM240600 16015KT 2SM RA BR OVC004
     FM241200 21015G25KT 4SM -SHRA OVC008
     FM241500 21020G30KT 6SM -SHRA SCT025 BKN040
     FM241900 23030G40KT P6SM OVC025=



000
FTUS43 KDTX 240306 AAA
TAFDTW
TAF AMD
KDTW 240306Z 2403/2506 13010KT 4SM -SHRA BR SCT008 OVC025
      TEMPO 2403/2405 2SM RA BR BKN008
     FM240500 16015KT 2SM RA BR OVC004
     FM241100 21015G25KT 4SM -SHRA OVC008
     FM241300 21020G30KT 6SM -SHRA SCT025 BKN040
     FM241900 23030G40KT P6SM OVC025=



000
FTUS43 KDTX 232338
TAFDET
TAF
KDET 232338Z 2400/2424 13010KT 6SM -SHRA SCT025 OVC040
      TEMPO 2400/2402 4SM -SHRA BKN025
     FM240200 13010KT 4SM -SHRA BR SCT008 OVC025
      TEMPO 2402/2405 2SM RA BR BKN008
     FM240500 16015KT 2SM RA BR OVC004
     FM241100 21015G25KT 4SM -SHRA OVC008
     FM241300 21020G30KT 6SM -SHRA SCT025 BKN040
     FM241900 23030G40KT P6SM OVC025=



000
FTUS43 KDTX 232338
TAFMBS
TAF
KMBS 232338Z 2400/2424 13010KT 6SM -SHRA SCT015 OVC040
      TEMPO 2400/2402 4SM -SHRA BKN015
     FM240200 13010KT 4SM -SHRA BR SCT008 OVC015
      TEMPO 2402/2405 2SM RA BR BKN008
     FM240500 16015KT 2SM RA BR OVC004
     FM241300 21015G25KT 4SM -SHRA OVC008
     FM241900 23020G30KT P6SM OVC025=



000
FTUS43 KDTX 232338
TAFFNT
TAF
KFNT 232338Z 2400/2424 13010KT 6SM -SHRA SCT025 OVC040
      TEMPO 2400/2402 4SM -SHRA BKN025
     FM240200 13010KT 4SM -SHRA BR SCT008 OVC025
      TEMPO 2402/2405 2SM RA BR BKN008
     FM240500 16015KT 2SM RA BR OVC004
     FM241200 21015G25KT 4SM -SHRA OVC008
     FM241500 21020G30KT 6SM -SHRA SCT025 BKN040
     FM241900 23030G40KT P6SM OVC025=



000
FTUS43 KDTX 232338
TAFDTW
TAF
KDTW 232338Z 2400/2506 13010KT 6SM -SHRA SCT025 OVC040
      TEMPO 2400/2402 4SM -SHRA BKN025
     FM240200 13010KT 4SM -SHRA BR SCT008 OVC025
      TEMPO 2402/2405 2SM RA BR BKN008
     FM240500 16015KT 2SM RA BR OVC004
     FM241100 21015G25KT 4SM -SHRA OVC008
     FM241300 21020G30KT 6SM -SHRA SCT025 BKN040
     FM241900 23030G40KT P6SM OVC025=



000
FTUS43 KDTX 232107 AAA
TAFDET
TAF AMD
KDET 232107Z 2321/2418 14010KT 6SM -SHRA BKN025 OVC070
     FM232300 14010KT 4SM -SHRA BR OVC025
     FM240200 14013KT 2SM RA BR OVC008
     FM240500 16015KT 2SM RA BR OVC004
     FM241100 21015G25KT 4SM -SHRA OVC008
     FM241300 21020G30KT 6SM -SHRA SCT025 BKN040=



000
FTUS43 KDTX 232106 AAA
TAFDTW
TAF AMD
KDTW 232106Z 2321/2424 13010KT 6SM -SHRA BKN030 OVC070
     FM232300 13010KT 4SM -SHRA BR OVC025
     FM240200 13013KT 2SM RA BR OVC008
     FM240500 16015KT 2SM RA BR OVC004
     FM241100 21015G25KT 4SM -SHRA OVC008
     FM241300 21020G30KT 6SM -SHRA SCT025 BKN040
     FM241900 23030G40KT P6SM OVC025=



000
FTUS43 KDTX 231730
TAFDET
TAF
KDET 231730Z 2318/2418 16007KT P6SM BKN100 OVC250
     FM232300 16010KT 4SM -SHRA BR OVC015
     FM240200 14013KT 2SM RA BR OVC008
     FM240500 16015KT 2SM RA BR OVC004
     FM241100 21015G25KT 4SM -SHRA OVC008
     FM241300 21020G30KT 6SM -SHRA SCT025 BKN040=



000
FTUS43 KDTX 231730
TAFDTW
TAF
KDTW 231730Z 2318/2424 14007KT P6SM BKN100 OVC250
     FM232300 14010KT 4SM -SHRA BR OVC015
     FM240200 14013KT 2SM RA BR OVC008
     FM240500 16015KT 2SM RA BR OVC004
     FM241100 21015G25KT 4SM -SHRA OVC008
     FM241300 21020G30KT 6SM -SHRA SCT025 BKN040
     FM241900 23030G40KT P6SM OVC025=



000
FTUS43 KDTX 231730
TAFMBS
TAF
KMBS 231730Z 2318/2418 16007KT P6SM BKN040 OVC080
     FM232300 16010KT 4SM -SHRA BR OVC015
     FM240200 14013KT 2SM RA BR OVC008
     FM240500 16015KT 2SM RA BR OVC004
     FM241300 21015G25KT 4SM -SHRA OVC008=



000
FTUS43 KDTX 231730
TAFFNT
TAF
KFNT 231730Z 2318/2418 16007KT P6SM SCT040 OVC080
     FM232300 16010KT 4SM -SHRA BR OVC015
     FM240200 14013KT 2SM RA BR OVC008
     FM240500 16015KT 2SM RA BR OVC004
     FM241200 21015G25KT 4SM -SHRA OVC008
     FM241500 21020G30KT 6SM -SHRA SCT025 BKN040=



000
FTUS43 KDTX 231522 AAA
TAFMBS
TAF AMD
KMBS 231522Z 2315/2412 18012KT 6SM -SHRA BR OVC035
      TEMPO 2315/2318 4SM -RA BR OVC025
     FM240100 14014KT 2SM RA BR OVC006
     FM241100 19014KT 3SM RA BR OVC009=



000
FTUS43 KDTX 231521 AAA
TAFFNT
TAF AMD
KFNT 231521Z 2315/2412 18012KT 6SM -SHRA BR OVC035
      TEMPO 2315/2318 4SM -RA BR OVC025
     FM240100 14014KT 2SM RA BR OVC006
     FM240900 19014KT 3SM RA BR OVC009=



000
FTUS43 KDTX 231510 AAA
TAFDET
TAF AMD
KDET 231510Z 2315/2412 18010KT 6SM -SHRA BR SCT035 OVC050
      TEMPO 2315/2318 4SM -RA BR OVC025
     FM232200 18010KT 4SM -SHRA BR OVC015
     FM240100 16012KT 2SM RA BR OVC006
     FM240700 19015KT 2SM RA BR OVC004
     FM241100 21016KT 5SM -SHRA OVC010=



000
FTUS43 KDTX 231509 AAA
TAFDTW
TAF AMD
KDTW 231509Z 2315/2418 16007KT 6SM -SHRA BR SCT035 OVC050
      TEMPO 2315/2318 4SM -RA BR OVC025
     FM232200 16010KT 4SM -SHRA BR OVC015
     FM240100 14012KT 2SM RA BR OVC006
     FM240700 19015KT 2SM RA BR OVC004
     FM241100 21016KT 5SM -SHRA OVC010
     FM241700 22020G35KT P6SM OVC025=



000
FTUS43 KDTX 231120
TAFFNT
TAF
KFNT 231120Z 2312/2412 18007KT P6SM SCT025 OVC040
      TEMPO 2312/2316 5SM -SHRA BKN025
     FM231600 16010KT 6SM -SHRA BR OVC022
     FM240000 14014KT 2SM RA BR OVC006
     FM240900 19014KT 3SM RA BR OVC009=



000
FTUS43 KDTX 231120
TAFDET
TAF
KDET 231120Z 2312/2412 18007KT P6SM -SHRA BKN025 OVC050
      TEMPO 2314/2318 SCT015 BKN035
     FM231800 16010KT 6SM -RA BR SCT015 BKN035
      TEMPO 2320/2324 4SM -RA BR OVC018
     FM240000 14012KT 2SM RA BR OVC006
     FM240700 19015KT 2SM RA BR OVC004
     FM241100 21016KT 5SM -SHRA OVC010=



000
FTUS43 KDTX 231120
TAFDTW
TAF
KDTW 231120Z 2312/2418 18007KT P6SM -SHRA BKN025 OVC050
      TEMPO 2314/2318 SCT015 BKN035
     FM231800 16010KT 6SM -RA BR SCT015 BKN035
      TEMPO 2320/2324 4SM -RA BR OVC018
     FM240000 14012KT 2SM RA BR OVC006
     FM240700 19015KT 2SM RA BR OVC004
     FM241100 21016KT 5SM -SHRA OVC010
     FM241700 22020G35KT P6SM OVC025=



000
FTUS43 KDTX 231120
TAFMBS
TAF
KMBS 231120Z 2312/2412 18007KT P6SM SCT015 OVC025
      TEMPO 2312/2316 5SM -SHRA
     FM231600 16010KT 6SM -SHRA BR OVC020
     FM240000 14014KT 2SM RA BR OVC005
     FM241100 19014KT 3SM RA BR OVC009=



000
FTUS43 KDTX 230928 AAA
TAFDTW
TAF AMD
KDTW 230928Z 2309/2412 18007KT P6SM -SHRA BKN025 OVC050
      TEMPO 2314/2318 SCT015 BKN035
     FM231800 16010KT 6SM -RA BR SCT015 BKN035
      TEMPO 2320/2324 4SM -RA BR OVC018
     FM240000 14012KT 2SM RA BR OVC006
     FM240700 19015KT 2SM RA BR OVC004
     FM241100 21016KT 5SM -SHRA OVC010=



000
FTUS43 KDTX 230533
TAFMBS
TAF
KMBS 230533Z 2306/2406 22010KT 4SM BR OVC015 WS015/22040KT
      TEMPO 2306/2310 4SM -SHRA BKN008
     FM231400 18007KT 4SM -RA BR OVC025
     FM231900 16010KT 4SM -RA BR OVC015
     FM240000 14010KT 2SM RA BR OVC006=



000
FTUS43 KDTX 230533
TAFDTW
TAF
KDTW 230533Z 2306/2412 20010KT 6SM BR OVC035 WS015/24045KT
      TEMPO 2309/2313 4SM -SHRA BKN025
     FM231300 18007KT 4SM -RA BR OVC025
     FM231900 16010KT 4SM -RA BR OVC015
     FM240000 14010KT 2SM RA BR OVC006
     FM240700 19014KT 2SM RA BR OVC004=



000
FTUS43 KDTX 230533
TAFDET
TAF
KDET 230533Z 2306/2406 22010KT 6SM BR OVC025 WS015/24045KT
      TEMPO 2309/2313 4SM -SHRA
     FM231300 18007KT 4SM -RA BR OVC025
     FM231900 16010KT 4SM -RA BR OVC015
     FM240000 14010KT 2SM RA BR OVC006=



000
FTUS43 KDTX 230533
TAFFNT
TAF
KFNT 230533Z 2306/2406 20010KT 4SM BR OVC025 WS015/22040KT
     FM231400 18007KT 4SM -RA BR OVC025
     FM231900 16010KT 4SM -RA BR OVC015
     FM240000 14010KT 2SM RA BR OVC006=



000
FTUS43 KDTX 230307 AAB
TAFDTW
TAF AMD
KDTW 230307Z 2303/2406 20012KT 6SM BR OVC035 WS015/24045KT
      TEMPO 2309/2313 4SM -SHRA BKN025
     FM231300 18007KT 2SM -RA BR OVC007
     FM231900 16010KT 4SM -RA BR OVC015
     FM240000 14010KT 4SM RA BR OVC006=



000
FTUS43 KDTX 230114 AAA
TAFDTW
TAF AMD
KDTW 230114Z 2301/2406 20012KT 6SM BR OVC035 WS015/24045KT
      TEMPO 2301/2304 4SM -SHRA BKN025
     FM231300 18007KT 2SM -RA BR OVC007
     FM231900 16010KT 4SM -RA BR OVC015
     FM240000 14010KT 4SM RA BR OVC006=



000
FTUS43 KDTX 222339
TAFDTW
TAF
KDTW 222339Z 2300/2406 20012KT 6SM BR OVC025 WS015/24045KT
      TEMPO 2300/2304 4SM -SHRA
     FM231300 18007KT 2SM -RA BR OVC007
     FM231900 16010KT 4SM -RA BR OVC015
     FM240000 14010KT 4SM RA BR OVC006=



000
FTUS43 KDTX 222339
TAFFNT
TAF
KFNT 222339Z 2300/2324 22012KT 4SM HZ OVC007 WS015/22040KT
      TEMPO 2300/2304 1SM BR BKN004
     FM230400 20012KT 4SM BR OVC015 WS015/22040KT
     FM231400 18007KT 2SM -RA BR OVC007
     FM231900 16010KT 4SM -RA BR OVC015=



000
FTUS43 KDTX 222339
TAFDET
TAF
KDET 222339Z 2300/2324 22012KT 6SM BR OVC025 WS015/24045KT
      TEMPO 2300/2304 4SM -SHRA
     FM231300 18007KT 2SM -RA BR OVC007
     FM231900 16010KT 4SM -RA BR OVC015=



000
FTUS43 KDTX 222339
TAFMBS
TAF
KMBS 222339Z 2300/2324 22012KT 3SM BR OVC007 WS015/22040KT
      TEMPO 2300/2304 1SM BR BKN004
     FM230400 22012KT 4SM BR OVC015 WS015/22040KT
     FM231400 18007KT 2SM -RA BR OVC007
     FM231900 16010KT 4SM -RA BR OVC015=



000
FTUS43 KDTX 222059 AAA
TAFDTW
TAF AMD
KDTW 222059Z 2221/2324 20012KT 6SM HZ OVC025 WS015/22045KT
      TEMPO 2221/2224 4SM -RA BR OVC015
     FM230000 20012KT 4SM BR OVC015 WS015/24045KT
     FM231300 18007KT 2SM -RA BR OVC007
     FM231900 16010KT 4SM -RA BR OVC015=



000
FTUS43 KDTX 222059 AAA
TAFDET
TAF AMD
KDET 222059Z 2221/2318 22012KT 6SM HZ OVC025 WS015/22045KT
      TEMPO 2221/2224 4SM -RA BR OVC015
     FM230000 22012KT 4SM BR OVC015 WS015/24045KT
     FM231300 18007KT 2SM -RA BR OVC007=



000
FTUS43 KDTX 222011 AAA
TAFMBS
TAF AMD
KMBS 222011Z 2220/2318 22012KT 4SM BR OVC007 WS015/22040KT
      TEMPO 2220/2224 2SM -RA BR OVC004
     FM230100 22012KT 4SM BR OVC015 WS015/22040KT
     FM231400 18007KT 2SM -RA BR OVC007=



000
FTUS43 KDTX 222010 AAA
TAFFNT
TAF AMD
KFNT 222010Z 2220/2318 22012KT 4SM HZ OVC007 WS015/22040KT
      TEMPO 2220/2224 2SM -RA BR OVC004
     FM230100 20012KT 4SM BR OVC015 WS015/22040KT
     FM231400 18007KT 2SM -RA BR OVC007=



000
FTUS43 KDTX 221735
TAFDTW
TAF
KDTW 221735Z 2218/2324 20012KT 6SM HZ OVC025 WS015/22045KT
      TEMPO 2218/2222 4SM -RA BR OVC015
     FM230100 20012KT 4SM -DZ BR OVC015 WS015/24045KT
     FM231300 18007KT 2SM -RA BR OVC007
     FM231900 16010KT 4SM -RA BR OVC015=



000
FTUS43 KDTX 221735
TAFFNT
TAF
KFNT 221735Z 2218/2318 22012KT 4SM -SHRA HZ OVC008 WS015/22040KT
     FM222000 22012KT 4SM -SHRA HZ OVC015 WS015/22040KT
     FM230100 20012KT 4SM -DZ BR OVC015 WS015/24040KT
     FM231400 18007KT 2SM -RA BR OVC007=



000
FTUS43 KDTX 221735
TAFMBS
TAF
KMBS 221735Z 2218/2318 22012KT 4SM -SHRA BR OVC007 WS015/22040KT
     FM222000 22012KT 4SM -SHRA HZ OVC015 WS015/22040KT
     FM230100 20012KT 4SM -DZ BR OVC015 WS015/24040KT
     FM231400 18007KT 2SM -RA BR OVC007=



000
FTUS43 KDTX 221735
TAFDET
TAF
KDET 221735Z 2218/2318 22012KT 6SM HZ OVC025 WS015/22045KT
      TEMPO 2218/2222 4SM -RA BR OVC015
     FM230100 20012KT 4SM -DZ BR OVC015 WS015/24045KT
     FM231300 18007KT 2SM -RA BR OVC007=



000
FTUS43 KDTX 221427 AAA
TAFMBS
TAF AMD
KMBS 221427Z 2214/2312 22013G20KT 6SM -SHRA BR OVC015 WS020/22045KT
     FM221500 22013G20KT 4SM -SHRA BR OVC008 WS020/22045KT
     FM221700 22013G20KT 6SM BR SCT015 OVC025 WS020/22045KT
      TEMPO 2217/2220 4SM -SHRA BR OVC015
     FM230000 22012KT 4SM -RA BR OVC012
     FM230800 19008KT 2SM -RA BR OVC007=



000
FTUS43 KDTX 221424 AAA
TAFFNT
TAF AMD
KFNT 221424Z 2214/2312 22013G20KT 4SM -SHRA BR OVC008 WS020/22050KT
     FM221600 22013G20KT 6SM BR SCT015 OVC025 WS020/22050KT
      TEMPO 2216/2220 4SM -SHRA BR OVC015
     FM230000 22012KT 4SM -RA BR OVC012 WS020/24050KT
     FM230800 19008KT 2SM -RA BR OVC007=



000
FTUS43 KDTX 221411 AAA
TAFDET
TAF AMD
KDET 221411Z 2214/2312 22010KT 4SM BR OVC010 WS020/22050KT
     FM221500 22013G20KT 6SM BR SCT015 OVC025 WS020/22050KT
      TEMPO 2215/2219 4SM -SHRA BR OVC015
     FM230000 22012KT 4SM -RA BR OVC012 WS020/24050KT
     FM230800 19008KT 2SM -RA BR OVC007=



000
FTUS43 KDTX 221410 AAA
TAFDTW
TAF AMD
KDTW 221410Z 2214/2318 19010KT 4SM BR OVC008 WS020/22050KT
     FM221500 21013G20KT 6SM BR SCT015 OVC025 WS020/22050KT
      TEMPO 2215/2219 4SM -SHRA BR OVC015
     FM230000 22012KT 4SM -RA BR OVC012 WS020/24050KT
     FM230800 19008KT 2SM -RA BR OVC007
     FM231500 18009KT 5SM -RA BR SCT008 OVC015=



000
FTUS43 KDTX 221123
TAFDTW
TAF
KDTW 221123Z 2212/2318 19011KT P6SM SCT015 OVC025 WS020/22050KT
      TEMPO 2212/2214 4SM -FZRA OVC015
     FM221400 21013G21KT 4SM -RA BR SCT008 OVC014 WS020/22050KT
     FM230000 22012KT 4SM -RA BR OVC012 WS020/24050KT
     FM230800 19008KT 2SM -RA BR OVC007
     FM231500 18009KT 5SM -RA BR SCT008 OVC015=



000
FTUS43 KDTX 221123
TAFDET
TAF
KDET 221123Z 2212/2312 19011KT P6SM SCT015 OVC025 WS020/22050KT
      TEMPO 2212/2214 4SM -FZRA OVC015
     FM221400 21013G21KT 4SM -RA BR SCT008 OVC014 WS020/22050KT
     FM230000 22012KT 4SM -RA BR OVC012 WS020/24050KT
     FM230800 19008KT 2SM -RA BR OVC007=



000
FTUS43 KDTX 221123
TAFMBS
TAF
KMBS 221123Z 2212/2312 21012KT P6SM SCT015 OVC025 WS015/22045KT
      TEMPO 2212/2215 4SM -FZRA OVC015
     FM221500 22012KT 6SM -RA BR OVC016 WS015/22045KT
     FM221800 22014G24KT 5SM -RA BR OVC015
     FM230000 22012KT 4SM -RA BR OVC012
     FM230800 19008KT 2SM -RA BR OVC007=



000
FTUS43 KDTX 221123
TAFFNT
TAF
KFNT 221123Z 2212/2312 20009KT P6SM SCT015 OVC024 WS020/22050KT
      TEMPO 2212/2215 4SM -FZRA OVC015
     FM221500 22013G21KT 4SM -RA BR OVC012 WS020/22050KT
     FM230000 22012KT 4SM -RA BR OVC012 WS020/24050KT
     FM230800 19008KT 2SM -RA BR OVC007=



000
FTUS43 KDTX 220835 AAA
TAFDTW
TAF AMD
KDTW 220835Z 2209/2312 19009KT P6SM SCT025 OVC040
     FM221000 19011KT P6SM OVC026 WS020/22050KT
      TEMPO 2210/2214 4SM -FZRA OVC018
     FM221400 21012KT 4SM -RA BR SCT008 OVC014 WS020/22050KT
     FM221800 22014G22KT 5SM -RA BR OVC012
     FM230000 22012KT 4SM -RA BR OVC012 WS020/24050KT=



000
FTUS43 KDTX 220531
TAFDTW
TAF
KDTW 220531Z 2206/2312 18008KT P6SM BKN150
     FM220800 19009KT P6SM SCT025 OVC040
     FM221000 19011KT P6SM OVC026 WS015/22045KT
      TEMPO 2210/2214 4SM -FZRA OVC018
     FM221400 21012KT 4SM -RA BR SCT008 OVC014 WS015/22045KT
     FM221800 22014G24KT 5SM -RA BR OVC012
     FM230000 22012KT 4SM -RA BR OVC012 WS020/24045KT=



000
FTUS43 KDTX 220531
TAFFNT
TAF
KFNT 220531Z 2206/2306 19008KT P6SM OVC150
     FM220800 20011KT P6SM SCT025 OVC035
     FM221000 20011KT P6SM OVC025 WS015/22045KT
      TEMPO 2211/2215 4SM -FZRA OVC018
     FM221500 22012KT 4SM -RA BR OVC012 WS015/22045KT
     FM221800 22014G24KT 5SM -RA BR OVC012
     FM230000 22012KT 4SM -RA BR OVC012 WS020/25040KT=



000
FTUS43 KDTX 220531
TAFMBS
TAF
KMBS 220531Z 2206/2306 20010G18KT P6SM OVC150
     FM220800 20006KT P6SM SCT025 OVC050
     FM221000 21012KT P6SM OVC025 WS015/22045KT
      TEMPO 2211/2215 4SM -FZRA OVC018
     FM221500 22012KT 4SM -RA BR OVC012 WS015/22045KT
     FM221800 22014G24KT 5SM -RA BR OVC012
     FM230000 22012KT 4SM -RA BR OVC012=



000
FTUS43 KDTX 220531
TAFDET
TAF
KDET 220531Z 2206/2306 19008KT P6SM OVC150
     FM220800 19010KT P6SM SCT025 OVC040
     FM221000 20011KT P6SM OVC026 WS015/22045KT
      TEMPO 2210/2214 4SM -FZRA OVC018
     FM221400 22012KT 4SM -RA BR SCT008 OVC014 WS015/22045KT
     FM221800 22014G24KT 5SM -RA BR OVC012
     FM230000 22012KT 4SM -RA BR OVC012 WS020/24045KT=



000
FTUS43 KDTX 220305 AAA
TAFMBS
TAF AMD
KMBS 220305Z 2203/2224 20010G18KT P6SM OVC150
     FM220800 20006KT P6SM SCT025 OVC050
     FM221000 21012KT P6SM OVC025 WS015/22045KT
     FM221500 22012KT 4SM -RA BR OVC012 WS015/22045KT
     FM221800 22014G24KT 5SM -RA BR OVC012 WS020/24045KT=



000
FTUS43 KDTX 220304 AAA
TAFDTW
TAF AMD
KDTW 220304Z 2203/2306 17009KT P6SM FEW150
     FM220600 18008KT P6SM BKN150
     FM220800 19009KT P6SM SCT025 OVC040
     FM221000 19011KT P6SM OVC026 WS015/22045KT PROB30 2212/2214 4SM
      -FZRA OVC018
     FM221400 21012KT 4SM -RA BR SCT008 OVC014 WS015/22045KT
     FM221800 22014G24KT 5SM -RA BR OVC012 WS020/24045KT
     FM230000 22012KT 4SM -RA BR OVC012 WS020/24045KT=



000
FTUS43 KDTX 212332
TAFMBS
TAF
KMBS 212332Z 2200/2224 20010KT P6SM SCT150
     FM220200 20010KT P6SM OVC015
     FM220800 20006KT P6SM SCT025 OVC050
     FM221000 21012KT P6SM OVC025 WS015/22045KT PROB30 2211/2215 4SM
      -FZRAPL OVC018
     FM221500 22012KT 4SM -RA BR OVC012 WS015/22045KT
     FM221800 22014G24KT 5SM -RA BR OVC012 WS020/24045KT=



000
FTUS43 KDTX 212332
TAFFNT
TAF
KFNT 212332Z 2200/2224 19008KT P6SM SCT150
     FM220200 19008KT P6SM OVC150
     FM220800 20011KT P6SM SCT025 OVC035
     FM221000 20011KT P6SM OVC025 WS015/22045KT PROB30 2211/2215 4SM
      -FZRA OVC018
     FM221500 22012KT 4SM -RA BR OVC012 WS015/22045KT
     FM221800 22014G24KT 5SM -RA BR OVC012 WS020/24045KT=



000
FTUS43 KDTX 212332
TAFDET
TAF
KDET 212332Z 2200/2224 21008KT P6SM FEW150
     FM220400 19008KT P6SM OVC150
     FM220800 19010KT P6SM SCT025 OVC040
     FM221000 20011KT P6SM OVC026 WS015/22045KT PROB30 2210/2214 4SM
      -FZRA OVC018
     FM221400 22012KT 4SM -RA BR SCT008 OVC014 WS015/22045KT
     FM221800 22014G24KT 5SM -RA BR OVC012 WS020/24045KT=



000
FTUS43 KDTX 212332
TAFDTW
TAF
KDTW 212332Z 2200/2306 17009KT P6SM FEW150
     FM220400 18008KT P6SM BKN150
     FM220800 19009KT P6SM SCT025 OVC040
     FM221000 19011KT P6SM OVC026 WS015/22045KT PROB30 2210/2212 4SM
      -FZRA OVC018
     FM221400 21012KT 4SM -RA BR SCT008 OVC014 WS015/22045KT
     FM221800 22014G24KT 5SM -RA BR OVC012 WS020/24045KT
     FM230000 22012KT 4SM -RA BR OVC012 WS020/24045KT=



000
FTUS43 KDTX 212049 AAA
TAFDTW
TAF AMD
KDTW 212049Z 2121/2224 21009KT P6SM SKC
     FM220000 18008KT P6SM BKN150
     FM220800 19009KT P6SM SCT025 OVC040
     FM221000 19011KT P6SM OVC026 WS015/22045KT PROB30 2210/2212 4SM
      -FZRA OVC018
     FM221400 21012KT 4SM -RA BR SCT008 OVC014 WS015/22045KT
     FM221800 22014G24KT 5SM -RA BR OVC012 WS020/24045KT=



000
FTUS43 KDTX 211731
TAFDET
TAF
KDET 211731Z 2118/2218 24008KT P6SM SCT035
     FM220000 19008KT P6SM OVC150
     FM220800 19010KT P6SM SCT025 OVC040
     FM221000 20011KT P6SM OVC026 WS015/22045KT PROB30 2210/2214 4SM
      -FZRA OVC018
     FM221400 22012KT 4SM -RA BR SCT008 OVC014 WS015/22045KT=



000
FTUS43 KDTX 211731
TAFFNT
TAF
KFNT 211731Z 2118/2218 23008KT P6SM FEW030
     FM220000 19008KT P6SM OVC150
     FM220800 20011KT P6SM SCT025 OVC035
     FM221000 20011KT P6SM OVC025 WS015/22045KT PROB30 2211/2215 4SM
      -FZRA OVC018
     FM221500 22012KT 4SM -RA BR OVC012 WS015/22045KT=



000
FTUS43 KDTX 211731
TAFDTW
TAF
KDTW 211731Z 2118/2224 22009KT P6SM SCT035
     FM220000 18008KT P6SM OVC150
     FM220800 19009KT P6SM SCT025 OVC040
     FM221000 19011KT P6SM OVC026 WS015/22045KT PROB30 2210/2214 4SM
      -FZRA OVC018
     FM221400 21012KT 4SM -RA BR SCT008 OVC014 WS015/22045KT
     FM221800 22014G24KT 5SM -RA BR OVC012 WS020/24045KT=



000
FTUS43 KDTX 211731
TAFMBS
TAF
KMBS 211731Z 2118/2218 22010KT P6SM FEW030
     FM220000 20010KT P6SM OVC015
     FM220800 20006KT P6SM SCT025 OVC050
     FM221000 21012KT P6SM OVC025 WS015/22045KT PROB30 2211/2215 4SM
      -FZRAPL OVC018
     FM221500 22012KT 4SM -RA BR OVC012 WS015/22045KT=



    US Dept of Commerce
    National Oceanic and Atmospheric Administration
    National Weather Service
    1325 East West Highway
    Silver Spring, MD 20910
    Page Author: NWS Internet Services Team
Disclaimer
Information Quality
Credits
Glossary
Privacy Policy
Freedom of Information Act (FOIA)
About Us
Career Opportunities